sensor_id;sensor_type;location;lat;lon;timestamp;P1;durP1;ratioP1;P2;durP2;ratioP2
53036;SDS011;38924;52.134;4.666;2022-12-18T00:01:53;144.50;;;45.20;;
53036;SDS011;38924;52.134;4.666;2022-12-18T00:04:22;148.93;;;45.85;;
53036;SDS011;38924;52.134;4.666;2022-12-18T00:06:48;138.85;;;44.03;;
53036;SDS011;38924;52.134;4.666;2022-12-18T00:09:14;143.07;;;47.30;;
53036;SDS011;38924;52.134;4.666;2022-12-18T00:11:39;149.25;;;48.20;;
53036;SDS011;38924;52.134;4.666;2022-12-18T00:14:05;149.15;;;46.85;;
53036;SDS011;38924;52.134;4.666;2022-12-18T00:16:31;150.02;;;46.15;;
53036;SDS011;38924;52.134;4.666;2022-12-18T00:18:58;146.80;;;47.03;;
53036;SDS011;38924;52.134;4.666;2022-12-18T00:21:25;143.10;;;45.50;;
53036;SDS011;38924;52.134;4.666;2022-12-18T00:23:51;158.48;;;49.90;;
53036;SDS011;38924;52.134;4.666;2022-12-18T00:26:18;161.55;;;44.78;;
53036;SDS011;38924;52.134;4.666;2022-12-18T00:28:44;147.95;;;47.67;;
53036;SDS011;38924;52.134;4.666;2022-12-18T00:31:11;157.63;;;49.08;;
53036;SDS011;38924;52.134;4.666;2022-12-18T00:33:37;140.20;;;47.05;;
53036;SDS011;38924;52.134;4.666;2022-12-18T00:36:04;143.15;;;46.92;;
53036;SDS011;38924;52.134;4.666;2022-12-18T00:38:31;186.77;;;49.72;;
53036;SDS011;38924;52.134;4.666;2022-12-18T00:40:59;177.15;;;46.70;;
53036;SDS011;38924;52.134;4.666;2022-12-18T00:43:28;143.95;;;47.38;;
53036;SDS011;38924;52.134;4.666;2022-12-18T00:45:53;153.00;;;48.15;;
53036;SDS011;38924;52.134;4.666;2022-12-18T00:48:19;143.80;;;46.25;;
53036;SDS011;38924;52.134;4.666;2022-12-18T00:50:47;149.98;;;46.97;;
53036;SDS011;38924;52.134;4.666;2022-12-18T00:53:13;151.07;;;48.42;;
53036;SDS011;38924;52.134;4.666;2022-12-18T00:55:39;135.35;;;43.80;;
53036;SDS011;38924;52.134;4.666;2022-12-18T00:58:05;132.48;;;46.80;;
53036;SDS011;38924;52.134;4.666;2022-12-18T01:00:31;189.68;;;40.75;;
53036;SDS011;38924;52.134;4.666;2022-12-18T01:02:56;149.25;;;44.47;;
53036;SDS011;38924;52.134;4.666;2022-12-18T01:05:24;126.15;;;42.17;;
53036;SDS011;38924;52.134;4.666;2022-12-18T01:07:50;133.35;;;41.60;;
53036;SDS011;38924;52.134;4.666;2022-12-18T01:10:16;130.40;;;41.67;;
53036;SDS011;38924;52.134;4.666;2022-12-18T01:12:42;116.40;;;41.95;;
53036;SDS011;38924;52.134;4.666;2022-12-18T01:15:07;120.28;;;42.17;;
53036;SDS011;38924;52.134;4.666;2022-12-18T01:17:35;116.78;;;42.05;;
53036;SDS011;38924;52.134;4.666;2022-12-18T01:20:01;132.68;;;42.75;;
53036;SDS011;38924;52.134;4.666;2022-12-18T01:22:26;119.72;;;40.08;;
53036;SDS011;38924;52.134;4.666;2022-12-18T01:24:52;139.70;;;42.30;;
53036;SDS011;38924;52.134;4.666;2022-12-18T01:27:21;142.52;;;45.35;;
53036;SDS011;38924;52.134;4.666;2022-12-18T01:29:47;122.85;;;42.78;;
53036;SDS011;38924;52.134;4.666;2022-12-18T01:32:14;136.00;;;46.10;;
53036;SDS011;38924;52.134;4.666;2022-12-18T01:34:40;112.95;;;42.72;;
53036;SDS011;38924;52.134;4.666;2022-12-18T01:37:06;130.95;;;45.47;;
53036;SDS011;38924;52.134;4.666;2022-12-18T01:39:32;127.28;;;44.13;;
53036;SDS011;38924;52.134;4.666;2022-12-18T01:41:58;126.57;;;40.75;;
53036;SDS011;38924;52.134;4.666;2022-12-18T01:49:46;131.75;;;41.30;;
53036;SDS011;38924;52.134;4.666;2022-12-18T01:52:12;155.05;;;40.10;;
53036;SDS011;38924;52.134;4.666;2022-12-18T01:54:38;122.20;;;42.55;;
53036;SDS011;38924;52.134;4.666;2022-12-18T01:57:04;129.90;;;42.75;;
53036;SDS011;38924;52.134;4.666;2022-12-18T01:59:30;121.00;;;37.70;;
53036;SDS011;38924;52.134;4.666;2022-12-18T02:01:56;133.02;;;40.03;;
53036;SDS011;38924;52.134;4.666;2022-12-18T02:04:23;112.88;;;40.58;;
53036;SDS011;38924;52.134;4.666;2022-12-18T02:06:54;105.47;;;40.88;;
53036;SDS011;38924;52.134;4.666;2022-12-18T02:09:23;113.15;;;41.28;;
53036;SDS011;38924;52.134;4.666;2022-12-18T02:11:53;112.43;;;42.90;;
53036;SDS011;38924;52.134;4.666;2022-12-18T02:14:28;132.25;;;40.03;;
53036;SDS011;38924;52.134;4.666;2022-12-18T02:16:59;101.05;;;40.17;;
53036;SDS011;38924;52.134;4.666;2022-12-18T02:19:31;141.75;;;41.47;;
53036;SDS011;38924;52.134;4.666;2022-12-18T02:24:35;110.18;;;38.53;;
53036;SDS011;38924;52.134;4.666;2022-12-18T02:27:04;179.13;;;45.70;;
53036;SDS011;38924;52.134;4.666;2022-12-18T02:29:36;188.77;;;45.08;;
53036;SDS011;38924;52.134;4.666;2022-12-18T02:32:03;140.95;;;42.83;;
53036;SDS011;38924;52.134;4.666;2022-12-18T02:34:38;142.27;;;44.63;;
53036;SDS011;38924;52.134;4.666;2022-12-18T02:37:06;103.32;;;36.78;;
53036;SDS011;38924;52.134;4.666;2022-12-18T02:39:34;132.90;;;43.88;;
53036;SDS011;38924;52.134;4.666;2022-12-18T02:42:03;124.22;;;44.38;;
53036;SDS011;38924;52.134;4.666;2022-12-18T02:44:34;145.32;;;42.35;;
53036;SDS011;38924;52.134;4.666;2022-12-18T02:47:03;112.55;;;40.70;;
53036;SDS011;38924;52.134;4.666;2022-12-18T02:49:36;120.35;;;39.13;;
53036;SDS011;38924;52.134;4.666;2022-12-18T02:57:04;111.20;;;39.55;;
53036;SDS011;38924;52.134;4.666;2022-12-18T03:00:08;108.78;;;39.55;;
53036;SDS011;38924;52.134;4.666;2022-12-18T03:02:26;125.68;;;38.60;;
53036;SDS011;38924;52.134;4.666;2022-12-18T03:05:02;102.75;;;38.72;;
53036;SDS011;38924;52.134;4.666;2022-12-18T03:07:37;97.55;;;35.40;;
53036;SDS011;38924;52.134;4.666;2022-12-18T03:10:08;111.10;;;37.33;;
53036;SDS011;38924;52.134;4.666;2022-12-18T03:12:37;95.43;;;36.60;;
53036;SDS011;38924;52.134;4.666;2022-12-18T03:17:33;96.45;;;36.95;;
53036;SDS011;38924;52.134;4.666;2022-12-18T03:20:04;108.43;;;37.67;;
53036;SDS011;38924;52.134;4.666;2022-12-18T03:22:32;117.35;;;39.42;;
53036;SDS011;38924;52.134;4.666;2022-12-18T03:24:59;102.78;;;38.28;;
53036;SDS011;38924;52.134;4.666;2022-12-18T03:27:26;103.28;;;36.47;;
53036;SDS011;38924;52.134;4.666;2022-12-18T03:29:57;122.57;;;41.05;;
53036;SDS011;38924;52.134;4.666;2022-12-18T03:33:16;125.65;;;36.45;;
53036;SDS011;38924;52.134;4.666;2022-12-18T03:35:23;87.95;;;36.63;;
53036;SDS011;38924;52.134;4.666;2022-12-18T03:37:52;105.78;;;34.80;;
53036;SDS011;38924;52.134;4.666;2022-12-18T03:40:18;100.70;;;35.10;;
53036;SDS011;38924;52.134;4.666;2022-12-18T03:42:49;117.30;;;35.53;;
53036;SDS011;38924;52.134;4.666;2022-12-18T03:45:26;80.57;;;32.83;;
53036;SDS011;38924;52.134;4.666;2022-12-18T03:47:58;89.35;;;35.50;;
53036;SDS011;38924;52.134;4.666;2022-12-18T03:50:27;80.25;;;33.13;;
53036;SDS011;38924;52.134;4.666;2022-12-18T03:53:08;88.50;;;36.17;;
53036;SDS011;38924;52.134;4.666;2022-12-18T03:55:35;85.53;;;34.42;;
53036;SDS011;38924;52.134;4.666;2022-12-18T03:58:04;113.50;;;37.85;;
53036;SDS011;38924;52.134;4.666;2022-12-18T04:00:43;88.57;;;34.58;;
53036;SDS011;38924;52.134;4.666;2022-12-18T04:03:10;84.63;;;34.22;;
53036;SDS011;38924;52.134;4.666;2022-12-18T04:05:43;104.50;;;36.38;;
53036;SDS011;38924;52.134;4.666;2022-12-18T04:08:09;93.38;;;35.58;;
53036;SDS011;38924;52.134;4.666;2022-12-18T04:10:39;87.55;;;35.38;;
53036;SDS011;38924;52.134;4.666;2022-12-18T04:13:04;87.88;;;35.22;;
53036;SDS011;38924;52.134;4.666;2022-12-18T04:15:33;85.63;;;35.72;;
53036;SDS011;38924;52.134;4.666;2022-12-18T04:18:00;95.22;;;35.55;;
53036;SDS011;38924;52.134;4.666;2022-12-18T04:20:35;99.03;;;37.25;;
53036;SDS011;38924;52.134;4.666;2022-12-18T04:23:02;104.45;;;37.47;;
53036;SDS011;38924;52.134;4.666;2022-12-18T04:25:28;89.97;;;36.70;;
53036;SDS011;38924;52.134;4.666;2022-12-18T04:28:06;100.70;;;37.72;;
53036;SDS011;38924;52.134;4.666;2022-12-18T04:30:33;84.72;;;36.67;;
53036;SDS011;38924;52.134;4.666;2022-12-18T04:32:59;96.95;;;37.85;;
53036;SDS011;38924;52.134;4.666;2022-12-18T04:35:25;110.18;;;38.50;;
53036;SDS011;38924;52.134;4.666;2022-12-18T04:37:51;98.65;;;39.75;;
53036;SDS011;38924;52.134;4.666;2022-12-18T04:40:17;100.60;;;38.25;;
53036;SDS011;38924;52.134;4.666;2022-12-18T04:42:46;92.10;;;36.80;;
53036;SDS011;38924;52.134;4.666;2022-12-18T04:45:13;95.18;;;38.92;;
53036;SDS011;38924;52.134;4.666;2022-12-18T04:47:39;99.60;;;39.17;;
53036;SDS011;38924;52.134;4.666;2022-12-18T04:50:05;102.28;;;39.30;;
53036;SDS011;38924;52.134;4.666;2022-12-18T04:52:31;97.53;;;39.13;;
53036;SDS011;38924;52.134;4.666;2022-12-18T04:54:56;99.65;;;37.42;;
53036;SDS011;38924;52.134;4.666;2022-12-18T04:57:22;94.32;;;37.50;;
53036;SDS011;38924;52.134;4.666;2022-12-18T04:59:48;119.57;;;39.42;;
53036;SDS011;38924;52.134;4.666;2022-12-18T05:02:14;99.35;;;38.58;;
53036;SDS011;38924;52.134;4.666;2022-12-18T05:04:39;104.93;;;40.58;;
53036;SDS011;38924;52.134;4.666;2022-12-18T05:07:05;93.35;;;36.35;;
53036;SDS011;38924;52.134;4.666;2022-12-18T05:09:30;102.57;;;38.03;;
53036;SDS011;38924;52.134;4.666;2022-12-18T05:11:56;93.25;;;37.58;;
53036;SDS011;38924;52.134;4.666;2022-12-18T05:14:22;93.35;;;36.60;;
53036;SDS011;38924;52.134;4.666;2022-12-18T05:16:48;98.97;;;38.53;;
53036;SDS011;38924;52.134;4.666;2022-12-18T05:19:14;99.68;;;37.55;;
53036;SDS011;38924;52.134;4.666;2022-12-18T05:21:39;95.22;;;36.85;;
53036;SDS011;38924;52.134;4.666;2022-12-18T05:24:05;93.72;;;36.60;;
53036;SDS011;38924;52.134;4.666;2022-12-18T05:26:31;94.07;;;38.05;;
53036;SDS011;38924;52.134;4.666;2022-12-18T05:28:58;97.78;;;37.53;;
53036;SDS011;38924;52.134;4.666;2022-12-18T05:31:23;93.13;;;36.38;;
53036;SDS011;38924;52.134;4.666;2022-12-18T05:33:50;89.45;;;37.60;;
53036;SDS011;38924;52.134;4.666;2022-12-18T05:36:16;87.22;;;34.90;;
53036;SDS011;38924;52.134;4.666;2022-12-18T05:38:41;83.65;;;35.65;;
53036;SDS011;38924;52.134;4.666;2022-12-18T05:41:07;77.47;;;35.45;;
53036;SDS011;38924;52.134;4.666;2022-12-18T05:43:34;82.47;;;32.75;;
53036;SDS011;38924;52.134;4.666;2022-12-18T05:46:03;76.35;;;33.63;;
53036;SDS011;38924;52.134;4.666;2022-12-18T05:48:29;67.72;;;29.80;;
53036;SDS011;38924;52.134;4.666;2022-12-18T05:50:54;71.72;;;32.47;;
53036;SDS011;38924;52.134;4.666;2022-12-18T05:53:20;74.50;;;30.70;;
53036;SDS011;38924;52.134;4.666;2022-12-18T05:55:49;74.93;;;31.92;;
53036;SDS011;38924;52.134;4.666;2022-12-18T05:58:16;74.43;;;32.45;;
53036;SDS011;38924;52.134;4.666;2022-12-18T06:00:44;74.45;;;33.72;;
53036;SDS011;38924;52.134;4.666;2022-12-18T06:03:10;71.38;;;29.88;;
53036;SDS011;38924;52.134;4.666;2022-12-18T06:05:36;73.00;;;32.97;;
53036;SDS011;38924;52.134;4.666;2022-12-18T06:08:02;72.97;;;32.67;;
53036;SDS011;38924;52.134;4.666;2022-12-18T06:10:28;79.95;;;32.35;;
53036;SDS011;38924;52.134;4.666;2022-12-18T06:12:54;71.43;;;30.85;;
53036;SDS011;38924;52.134;4.666;2022-12-18T06:15:19;69.13;;;30.48;;
53036;SDS011;38924;52.134;4.666;2022-12-18T06:17:45;66.00;;;28.30;;
53036;SDS011;38924;52.134;4.666;2022-12-18T06:20:11;74.60;;;31.77;;
53036;SDS011;38924;52.134;4.666;2022-12-18T06:22:36;75.75;;;31.30;;
53036;SDS011;38924;52.134;4.666;2022-12-18T06:25:02;74.38;;;31.95;;
53036;SDS011;38924;52.134;4.666;2022-12-18T06:27:28;72.70;;;29.67;;
53036;SDS011;38924;52.134;4.666;2022-12-18T06:29:54;65.00;;;29.63;;
53036;SDS011;38924;52.134;4.666;2022-12-18T06:32:19;68.97;;;30.63;;
53036;SDS011;38924;52.134;4.666;2022-12-18T06:34:45;67.85;;;29.30;;
53036;SDS011;38924;52.134;4.666;2022-12-18T06:37:11;63.38;;;28.50;;
53036;SDS011;38924;52.134;4.666;2022-12-18T06:39:36;61.67;;;29.35;;
53036;SDS011;38924;52.134;4.666;2022-12-18T06:42:02;67.63;;;29.77;;
53036;SDS011;38924;52.134;4.666;2022-12-18T06:44:28;68.55;;;29.48;;
53036;SDS011;38924;52.134;4.666;2022-12-18T06:46:54;59.17;;;28.52;;
53036;SDS011;38924;52.134;4.666;2022-12-18T06:49:20;71.30;;;31.45;;
53036;SDS011;38924;52.134;4.666;2022-12-18T06:51:46;61.22;;;29.10;;
53036;SDS011;38924;52.134;4.666;2022-12-18T06:54:12;62.25;;;30.60;;
53036;SDS011;38924;52.134;4.666;2022-12-18T06:56:38;55.95;;;28.58;;
53036;SDS011;38924;52.134;4.666;2022-12-18T06:59:04;63.72;;;30.98;;
53036;SDS011;38924;52.134;4.666;2022-12-18T07:01:29;66.93;;;29.38;;
53036;SDS011;38924;52.134;4.666;2022-12-18T07:03:55;62.97;;;28.98;;
53036;SDS011;38924;52.134;4.666;2022-12-18T07:06:22;61.10;;;29.05;;
53036;SDS011;38924;52.134;4.666;2022-12-18T07:08:49;59.58;;;28.95;;
53036;SDS011;38924;52.134;4.666;2022-12-18T07:11:15;65.03;;;31.42;;
53036;SDS011;38924;52.134;4.666;2022-12-18T07:13:41;63.78;;;30.48;;
53036;SDS011;38924;52.134;4.666;2022-12-18T07:16:11;69.35;;;31.15;;
53036;SDS011;38924;52.134;4.666;2022-12-18T07:18:37;61.80;;;30.67;;
53036;SDS011;38924;52.134;4.666;2022-12-18T07:21:07;63.95;;;31.90;;
53036;SDS011;38924;52.134;4.666;2022-12-18T07:23:33;60.90;;;30.40;;
53036;SDS011;38924;52.134;4.666;2022-12-18T07:26:01;61.95;;;29.75;;
53036;SDS011;38924;52.134;4.666;2022-12-18T07:28:27;66.03;;;32.28;;
53036;SDS011;38924;52.134;4.666;2022-12-18T07:30:53;57.97;;;30.58;;
53036;SDS011;38924;52.134;4.666;2022-12-18T07:33:19;62.50;;;31.92;;
53036;SDS011;38924;52.134;4.666;2022-12-18T07:35:45;54.17;;;30.00;;
53036;SDS011;38924;52.134;4.666;2022-12-18T07:38:11;58.80;;;30.77;;
53036;SDS011;38924;52.134;4.666;2022-12-18T07:40:36;59.92;;;31.00;;
53036;SDS011;38924;52.134;4.666;2022-12-18T07:43:05;54.97;;;29.40;;
53036;SDS011;38924;52.134;4.666;2022-12-18T07:45:33;61.60;;;30.33;;
53036;SDS011;38924;52.134;4.666;2022-12-18T07:48:05;53.47;;;28.33;;
53036;SDS011;38924;52.134;4.666;2022-12-18T07:50:31;58.03;;;30.00;;
53036;SDS011;38924;52.134;4.666;2022-12-18T07:52:57;50.70;;;26.33;;
53036;SDS011;38924;52.134;4.666;2022-12-18T07:55:23;51.22;;;26.45;;
53036;SDS011;38924;52.134;4.666;2022-12-18T07:57:50;49.22;;;28.20;;
53036;SDS011;38924;52.134;4.666;2022-12-18T08:00:16;57.90;;;26.83;;
53036;SDS011;38924;52.134;4.666;2022-12-18T08:02:41;54.13;;;28.63;;
53036;SDS011;38924;52.134;4.666;2022-12-18T08:05:07;50.42;;;28.05;;
53036;SDS011;38924;52.134;4.666;2022-12-18T08:07:34;50.83;;;26.92;;
53036;SDS011;38924;52.134;4.666;2022-12-18T08:10:00;45.88;;;24.85;;
53036;SDS011;38924;52.134;4.666;2022-12-18T08:12:26;52.05;;;29.38;;
53036;SDS011;38924;52.134;4.666;2022-12-18T08:14:52;48.38;;;25.42;;
53036;SDS011;38924;52.134;4.666;2022-12-18T08:17:18;45.60;;;25.17;;
53036;SDS011;38924;52.134;4.666;2022-12-18T08:19:44;48.13;;;24.63;;
53036;SDS011;38924;52.134;4.666;2022-12-18T08:22:11;45.80;;;25.30;;
53036;SDS011;38924;52.134;4.666;2022-12-18T08:24:37;45.67;;;23.92;;
53036;SDS011;38924;52.134;4.666;2022-12-18T08:27:04;46.92;;;23.45;;
53036;SDS011;38924;52.134;4.666;2022-12-18T08:29:29;44.00;;;23.80;;
53036;SDS011;38924;52.134;4.666;2022-12-18T08:31:57;47.42;;;23.02;;
53036;SDS011;38924;52.134;4.666;2022-12-18T08:34:23;39.15;;;22.83;;
53036;SDS011;38924;52.134;4.666;2022-12-18T08:36:48;53.58;;;27.05;;
53036;SDS011;38924;52.134;4.666;2022-12-18T08:39:14;44.10;;;23.38;;
53036;SDS011;38924;52.134;4.666;2022-12-18T08:41:41;41.15;;;21.92;;
53036;SDS011;38924;52.134;4.666;2022-12-18T08:44:07;46.20;;;23.15;;
53036;SDS011;38924;52.134;4.666;2022-12-18T08:46:51;40.03;;;22.73;;
53036;SDS011;38924;52.134;4.666;2022-12-18T08:49:17;41.83;;;23.20;;
53036;SDS011;38924;52.134;4.666;2022-12-18T08:51:43;43.83;;;23.55;;
53036;SDS011;38924;52.134;4.666;2022-12-18T08:54:11;41.38;;;22.10;;
53036;SDS011;38924;52.134;4.666;2022-12-18T08:56:36;33.53;;;20.40;;
53036;SDS011;38924;52.134;4.666;2022-12-18T08:59:02;36.88;;;21.77;;
53036;SDS011;38924;52.134;4.666;2022-12-18T09:01:28;43.42;;;22.83;;
53036;SDS011;38924;52.134;4.666;2022-12-18T09:03:53;39.35;;;24.35;;
53036;SDS011;38924;52.134;4.666;2022-12-18T09:06:20;42.75;;;21.35;;
53036;SDS011;38924;52.134;4.666;2022-12-18T09:08:46;37.45;;;20.38;;
53036;SDS011;38924;52.134;4.666;2022-12-18T09:11:13;39.15;;;22.77;;
53036;SDS011;38924;52.134;4.666;2022-12-18T09:13:38;36.05;;;22.70;;
53036;SDS011;38924;52.134;4.666;2022-12-18T09:16:04;39.10;;;22.58;;
53036;SDS011;38924;52.134;4.666;2022-12-18T09:18:30;41.20;;;22.92;;
53036;SDS011;38924;52.134;4.666;2022-12-18T09:20:56;37.55;;;21.33;;
53036;SDS011;38924;52.134;4.666;2022-12-18T09:23:21;38.35;;;20.88;;
53036;SDS011;38924;52.134;4.666;2022-12-18T09:25:47;39.40;;;22.92;;
53036;SDS011;38924;52.134;4.666;2022-12-18T09:28:15;39.17;;;22.67;;
53036;SDS011;38924;52.134;4.666;2022-12-18T09:30:43;37.47;;;20.80;;
53036;SDS011;38924;52.134;4.666;2022-12-18T09:33:09;37.33;;;20.85;;
53036;SDS011;38924;52.134;4.666;2022-12-18T09:35:38;36.70;;;21.20;;
53036;SDS011;38924;52.134;4.666;2022-12-18T09:38:04;36.58;;;21.48;;
53036;SDS011;38924;52.134;4.666;2022-12-18T09:40:33;37.97;;;22.27;;
53036;SDS011;38924;52.134;4.666;2022-12-18T09:43:00;42.35;;;22.75;;
53036;SDS011;38924;52.134;4.666;2022-12-18T09:45:26;35.10;;;19.98;;
53036;SDS011;38924;52.134;4.666;2022-12-18T09:47:52;40.45;;;21.40;;
53036;SDS011;38924;52.134;4.666;2022-12-18T09:52:46;35.03;;;19.95;;
53036;SDS011;38924;52.134;4.666;2022-12-18T10:00:35;37.05;;;21.20;;
53036;SDS011;38924;52.134;4.666;2022-12-18T10:03:03;42.33;;;22.30;;
53036;SDS011;38924;52.134;4.666;2022-12-18T10:05:37;41.40;;;22.17;;
53036;SDS011;38924;52.134;4.666;2022-12-18T10:08:06;39.95;;;21.60;;
53036;SDS011;38924;52.134;4.666;2022-12-18T10:16:17;33.47;;;19.38;;
53036;SDS011;38924;52.134;4.666;2022-12-18T10:21:15;38.15;;;21.30;;
53036;SDS011;38924;52.134;4.666;2022-12-18T10:23:46;33.33;;;20.65;;
53036;SDS011;38924;52.134;4.666;2022-12-18T10:26:16;40.17;;;22.95;;
53036;SDS011;38924;52.134;4.666;2022-12-18T10:28:42;39.63;;;20.52;;
53036;SDS011;38924;52.134;4.666;2022-12-18T10:31:15;42.20;;;22.73;;
53036;SDS011;38924;52.134;4.666;2022-12-18T10:33:42;33.83;;;18.80;;
53036;SDS011;38924;52.134;4.666;2022-12-18T10:36:08;34.38;;;19.92;;
53036;SDS011;38924;52.134;4.666;2022-12-18T10:38:34;37.88;;;21.58;;
53036;SDS011;38924;52.134;4.666;2022-12-18T10:43:29;39.80;;;22.25;;
53036;SDS011;38924;52.134;4.666;2022-12-18T10:48:24;36.33;;;20.10;;
53036;SDS011;38924;52.134;4.666;2022-12-18T10:50:50;33.70;;;19.83;;
53036;SDS011;38924;52.134;4.666;2022-12-18T10:53:19;34.25;;;19.85;;
53036;SDS011;38924;52.134;4.666;2022-12-18T10:55:45;36.50;;;21.55;;
53036;SDS011;38924;52.134;4.666;2022-12-18T11:01:13;35.47;;;20.98;;
53036;SDS011;38924;52.134;4.666;2022-12-18T11:03:43;36.95;;;20.75;;
53036;SDS011;38924;52.134;4.666;2022-12-18T11:06:11;34.38;;;19.92;;
53036;SDS011;38924;52.134;4.666;2022-12-18T11:08:37;33.88;;;20.35;;
53036;SDS011;38924;52.134;4.666;2022-12-18T11:11:03;41.22;;;22.63;;
53036;SDS011;38924;52.134;4.666;2022-12-18T11:13:29;39.67;;;21.95;;
53036;SDS011;38924;52.134;4.666;2022-12-18T11:15:56;37.42;;;21.98;;
53036;SDS011;38924;52.134;4.666;2022-12-18T11:18:24;39.50;;;23.08;;
53036;SDS011;38924;52.134;4.666;2022-12-18T11:20:51;39.85;;;21.02;;
53036;SDS011;38924;52.134;4.666;2022-12-18T11:23:18;41.95;;;23.83;;
53036;SDS011;38924;52.134;4.666;2022-12-18T11:25:51;34.78;;;20.35;;
53036;SDS011;38924;52.134;4.666;2022-12-18T11:28:39;28.23;;;17.23;;
53036;SDS011;38924;52.134;4.666;2022-12-18T11:33:42;42.03;;;20.75;;
53036;SDS011;38924;52.134;4.666;2022-12-18T11:36:09;35.72;;;20.63;;
53036;SDS011;38924;52.134;4.666;2022-12-18T11:38:37;39.35;;;20.52;;
53036;SDS011;38924;52.134;4.666;2022-12-18T11:41:07;38.60;;;21.80;;
53036;SDS011;38924;52.134;4.666;2022-12-18T11:46:12;33.80;;;20.00;;
53036;SDS011;38924;52.134;4.666;2022-12-18T11:48:49;46.70;;;22.90;;
53036;SDS011;38924;52.134;4.666;2022-12-18T11:51:19;38.33;;;21.88;;
53036;SDS011;38924;52.134;4.666;2022-12-18T11:53:53;34.95;;;21.15;;
53036;SDS011;38924;52.134;4.666;2022-12-18T12:04:14;35.08;;;20.45;;
53036;SDS011;38924;52.134;4.666;2022-12-18T12:06:48;34.28;;;19.95;;
53036;SDS011;38924;52.134;4.666;2022-12-18T12:09:33;32.67;;;20.17;;
53036;SDS011;38924;52.134;4.666;2022-12-18T12:12:14;36.15;;;20.13;;
53036;SDS011;38924;52.134;4.666;2022-12-18T12:14:52;36.15;;;21.02;;
53036;SDS011;38924;52.134;4.666;2022-12-18T12:17:37;37.42;;;19.45;;
53036;SDS011;38924;52.134;4.666;2022-12-18T12:22:45;31.23;;;18.95;;
53036;SDS011;38924;52.134;4.666;2022-12-18T12:27:53;33.42;;;19.20;;
53036;SDS011;38924;52.134;4.666;2022-12-18T12:30:26;30.92;;;17.90;;
53036;SDS011;38924;52.134;4.666;2022-12-18T12:33:08;33.97;;;18.80;;
53036;SDS011;38924;52.134;4.666;2022-12-18T12:35:49;35.83;;;20.45;;
53036;SDS011;38924;52.134;4.666;2022-12-18T12:38:19;32.67;;;19.15;;
53036;SDS011;38924;52.134;4.666;2022-12-18T12:40:48;31.02;;;18.33;;
53036;SDS011;38924;52.134;4.666;2022-12-18T12:43:30;38.03;;;21.65;;
53036;SDS011;38924;52.134;4.666;2022-12-18T12:50:52;31.85;;;19.60;;
53036;SDS011;38924;52.134;4.666;2022-12-18T12:53:23;34.13;;;19.98;;
53036;SDS011;38924;52.134;4.666;2022-12-18T12:55:52;32.72;;;20.00;;
53036;SDS011;38924;52.134;4.666;2022-12-18T12:58:22;34.33;;;19.25;;
53036;SDS011;38924;52.134;4.666;2022-12-18T13:00:52;32.17;;;19.02;;
53036;SDS011;38924;52.134;4.666;2022-12-18T13:03:37;28.63;;;18.63;;
53036;SDS011;38924;52.134;4.666;2022-12-18T13:06:14;34.17;;;20.83;;
53036;SDS011;38924;52.134;4.666;2022-12-18T13:08:55;36.85;;;19.38;;
53036;SDS011;38924;52.134;4.666;2022-12-18T13:14:24;32.10;;;19.83;;
53036;SDS011;38924;52.134;4.666;2022-12-18T13:16:51;31.83;;;18.05;;
53036;SDS011;38924;52.134;4.666;2022-12-18T13:19:23;39.17;;;20.88;;
53036;SDS011;38924;52.134;4.666;2022-12-18T13:21:52;36.22;;;21.40;;
53036;SDS011;38924;52.134;4.666;2022-12-18T13:24:26;33.28;;;19.85;;
53036;SDS011;38924;52.134;4.666;2022-12-18T13:26:52;35.60;;;21.35;;
53036;SDS011;38924;52.134;4.666;2022-12-18T13:32:15;36.83;;;20.45;;
53036;SDS011;38924;52.134;4.666;2022-12-18T13:34:44;29.90;;;20.05;;
53036;SDS011;38924;52.134;4.666;2022-12-18T13:37:33;32.38;;;19.17;;
53036;SDS011;38924;52.134;4.666;2022-12-18T13:40:00;33.88;;;20.27;;
53036;SDS011;38924;52.134;4.666;2022-12-18T13:42:34;34.15;;;20.42;;
53036;SDS011;38924;52.134;4.666;2022-12-18T13:47:46;40.15;;;21.52;;
53036;SDS011;38924;52.134;4.666;2022-12-18T13:50:22;36.03;;;20.60;;
53036;SDS011;38924;52.134;4.666;2022-12-18T13:52:51;35.95;;;20.75;;
53036;SDS011;38924;52.134;4.666;2022-12-18T13:55:18;33.28;;;19.63;;
53036;SDS011;38924;52.134;4.666;2022-12-18T13:57:44;38.95;;;21.27;;
53036;SDS011;38924;52.134;4.666;2022-12-18T14:02:49;34.22;;;21.58;;
53036;SDS011;38924;52.134;4.666;2022-12-18T14:05:28;40.50;;;24.00;;
53036;SDS011;38924;52.134;4.666;2022-12-18T14:07:55;35.85;;;21.25;;
53036;SDS011;38924;52.134;4.666;2022-12-18T14:10:26;35.40;;;19.90;;
53036;SDS011;38924;52.134;4.666;2022-12-18T14:12:51;38.58;;;22.10;;
53036;SDS011;38924;52.134;4.666;2022-12-18T14:17:49;36.63;;;22.13;;
53036;SDS011;38924;52.134;4.666;2022-12-18T14:20:15;36.25;;;20.95;;
53036;SDS011;38924;52.134;4.666;2022-12-18T14:22:45;36.95;;;20.30;;
53036;SDS011;38924;52.134;4.666;2022-12-18T14:25:16;31.27;;;19.42;;
53036;SDS011;38924;52.134;4.666;2022-12-18T14:27:46;33.28;;;19.58;;
53036;SDS011;38924;52.134;4.666;2022-12-18T14:30:32;34.22;;;20.33;;
53036;SDS011;38924;52.134;4.666;2022-12-18T14:35:26;33.45;;;19.90;;
53036;SDS011;38924;52.134;4.666;2022-12-18T14:37:52;35.72;;;20.48;;
53036;SDS011;38924;52.134;4.666;2022-12-18T14:40:18;35.83;;;22.13;;
53036;SDS011;38924;52.134;4.666;2022-12-18T14:42:43;33.80;;;21.63;;
53036;SDS011;38924;52.134;4.666;2022-12-18T14:47:53;34.95;;;21.65;;
53036;SDS011;38924;52.134;4.666;2022-12-18T14:50:19;48.60;;;23.77;;
53036;SDS011;38924;52.134;4.666;2022-12-18T14:52:44;42.10;;;23.58;;
53036;SDS011;38924;52.134;4.666;2022-12-18T14:55:17;36.40;;;22.92;;
53036;SDS011;38924;52.134;4.666;2022-12-18T14:57:43;35.60;;;21.77;;
53036;SDS011;38924;52.134;4.666;2022-12-18T15:00:17;35.20;;;19.70;;
53036;SDS011;38924;52.134;4.666;2022-12-18T15:02:45;34.88;;;21.30;;
53036;SDS011;38924;52.134;4.666;2022-12-18T15:07:41;34.15;;;20.80;;
53036;SDS011;38924;52.134;4.666;2022-12-18T15:12:40;37.45;;;21.00;;
53036;SDS011;38924;52.134;4.666;2022-12-18T15:17:56;32.67;;;20.48;;
53036;SDS011;38924;52.134;4.666;2022-12-18T15:20:22;36.53;;;22.13;;
53036;SDS011;38924;52.134;4.666;2022-12-18T15:22:47;42.72;;;22.05;;
53036;SDS011;38924;52.134;4.666;2022-12-18T15:25:23;35.55;;;21.15;;
53036;SDS011;38924;52.134;4.666;2022-12-18T15:27:51;35.33;;;21.20;;
53036;SDS011;38924;52.134;4.666;2022-12-18T15:30:19;34.25;;;21.38;;
53036;SDS011;38924;52.134;4.666;2022-12-18T15:32:48;36.53;;;21.15;;
53036;SDS011;38924;52.134;4.666;2022-12-18T15:35:18;33.88;;;20.13;;
53036;SDS011;38924;52.134;4.666;2022-12-18T15:37:44;31.98;;;19.85;;
53036;SDS011;38924;52.134;4.666;2022-12-18T15:40:12;37.97;;;20.77;;
53036;SDS011;38924;52.134;4.666;2022-12-18T15:42:38;38.60;;;21.90;;
53036;SDS011;38924;52.134;4.666;2022-12-18T15:45:22;37.63;;;20.42;;
53036;SDS011;38924;52.134;4.666;2022-12-18T15:47:48;31.98;;;19.73;;
53036;SDS011;38924;52.134;4.666;2022-12-18T15:50:13;39.38;;;22.08;;
53036;SDS011;38924;52.134;4.666;2022-12-18T15:52:40;34.05;;;20.55;;
53036;SDS011;38924;52.134;4.666;2022-12-18T15:57:56;37.78;;;20.13;;